Time;durP1;ratioP1;P1;durP2;ratioP2;P2;SDS_P1;SDS_P2;PMS_P1;PMS_P2;Temp;Humidity;BMP_temperature;BMP_pressure;BME280_temperature;BME280_humidity;BME280_pressure;Samples;Min_cycle;Max_cycle;Signal;HPM_P1;HPM_P2
2022/08/29 00:01:16;;;;;;;9.27;4.35;;;;;;;14.28;71.08;101334.91;7396964;19;20374;-66
2022/08/29 00:03:45;;;;;;;8.43;3.60;;;;;;;14.24;71.35;101334.16;7398258;19;20031;-67
2022/08/29 00:06:14;;;;;;;11.48;4.25;;;;;;;14.22;71.73;101335.09;7396784;19;20437;-66
2022/08/29 00:08:43;;;;;;;9.90;3.83;;;;;;;14.19;71.49;101336.00;7399075;19;20499;-66
2022/08/29 00:11:11;;;;;;;9.68;3.47;;;;;;;14.16;71.67;101344.88;7399386;19;20033;-66
2022/08/29 00:13:40;;;;;;;9.52;3.50;;;;;;;14.12;71.75;101343.25;7397921;19;20511;-67
2022/08/29 00:16:11;;;;;;;6.55;3.30;;;;;;;14.07;71.99;101331.94;7396425;19;20010;-66
2022/08/29 00:18:40;;;;;;;11.63;4.00;;;;;;;14.04;71.79;101337.31;7397146;19;20018;-67
2022/08/29 00:21:08;;;;;;;12.10;3.90;;;;;;;14.01;72.01;101334.75;7398978;19;20018;-67
2022/08/29 00:23:37;;;;;;;8.93;3.10;;;;;;;13.96;72.23;101334.88;7398066;19;20023;-66
2022/08/29 00:26:06;;;;;;;9.35;3.13;;;;;;;13.91;72.53;101343.81;7396539;19;20014;-66
2022/08/29 00:28:34;;;;;;;6.18;3.40;;;;;;;13.88;72.47;101343.91;7396479;19;20031;-66
2022/08/29 00:31:03;;;;;;;7.18;3.38;;;;;;;13.83;72.51;101344.88;7398732;19;20035;-66
2022/08/29 00:33:34;;;;;;;6.10;3.22;;;;;;;13.79;72.57;101337.94;7397464;19;20019;-67
2022/08/29 00:36:03;;;;;;;6.57;2.95;;;;;;;13.77;72.56;101328.34;7398912;19;20014;-67
2022/08/29 00:38:31;;;;;;;10.20;3.80;;;;;;;13.73;72.61;101340.75;7395866;19;20406;-67
2022/08/29 00:41:00;;;;;;;6.05;3.65;;;;;;;13.70;73.10;101335.56;7398349;19;20018;-66
2022/08/29 00:43:38;;;;;;;7.07;3.38;;;;;;;13.67;73.23;101333.88;7396120;19;20022;-66
2022/08/29 00:46:31;;;;;;;7.40;3.80;;;;;;;13.63;73.24;101332.19;7398636;19;20496;-66
2022/08/29 00:49:07;;;;;;;9.10;3.67;;;;;;;13.59;73.11;101340.25;7397766;19;20477;-66
2022/08/29 00:51:36;;;;;;;10.27;3.63;;;;;;;13.55;73.23;101338.56;7398380;19;20006;-66
2022/08/29 00:54:08;;;;;;;9.52;4.10;;;;;;;13.51;73.32;101340.44;7395815;19;20407;-66
2022/08/29 00:56:38;;;;;;;11.65;3.83;;;;;;;13.46;73.59;101337.03;7397937;19;20019;-66
2022/08/29 00:59:13;;;;;;;8.18;3.35;;;;;;;13.41;73.55;101339.78;7397704;19;20399;-66
2022/08/29 01:01:42;;;;;;;12.15;3.80;;;;;;;13.35;73.62;101337.25;7398053;19;20025;-67
2022/08/29 01:04:13;;;;;;;11.60;3.20;;;;;;;13.31;74.09;101339.09;7395961;19;20015;-66
2022/08/29 01:06:43;;;;;;;7.57;3.22;;;;;;;13.28;74.11;101341.81;7397095;19;20031;-67
2022/08/29 01:09:13;;;;;;;9.05;3.85;;;;;;;13.25;74.16;101339.22;7395579;19;20018;-66
2022/08/29 01:14:26;;;;;;;7.25;3.67;;;;;;;13.18;74.32;101346.41;7396108;19;20042;-67
2022/08/29 01:16:58;;;;;;;14.18;3.72;;;;;;;13.13;74.41;101348.28;7394918;19;20015;-66
2022/08/29 01:19:45;;;;;;;7.93;3.70;;;;;;;13.08;74.55;101351.91;7395671;19;20032;-66
2022/08/29 01:22:49;;;;;;;9.40;3.58;;;;;;;13.03;74.97;101350.25;7397368;19;20018;-66
2022/08/29 01:25:23;;;;;;;8.27;3.60;;;;;;;12.99;74.47;101356.50;7394362;19;20014;-66
2022/08/29 01:27:56;;;;;;;;;;;;;;;12.97;74.94;101357.44;7397320;19;20374;-67
2022/08/29 01:31:04;;;;;;;7.80;3.83;;;;;;;12.94;74.86;101360.13;7397165;19;19922;-66
2022/08/29 01:33:42;;;;;;;5.95;3.47;;;;;;;12.92;74.63;101359.31;7395673;19;20019;-66
2022/08/29 01:36:14;;;;;;;9.63;3.38;;;;;;;12.89;74.29;101365.53;7396140;19;20025;-66
2022/08/29 01:38:50;;;;;;;9.50;3.72;;;;;;;12.88;74.30;101362.00;7394372;19;20360;-66
2022/08/29 01:41:29;;;;;;;10.55;3.25;;;;;;;12.88;74.38;101363.78;7394837;19;20030;-66
2022/08/29 01:43:58;;;;;;;8.57;3.28;;;;;;;12.87;74.32;101360.25;7395037;19;20042;-66
2022/08/29 01:46:30;;;;;;;8.45;3.00;;;;;;;12.85;74.38;101362.06;7394501;19;20014;-66
2022/08/29 01:48:59;;;;;;;7.15;3.53;;;;;;;12.84;74.13;101362.97;7394828;19;20025;-66
2022/08/29 01:51:27;;;;;;;6.47;3.88;;;;;;;12.84;74.30;101362.13;7394342;19;20023;-66
2022/08/29 01:53:56;;;;;;;10.88;3.45;;;;;;;12.82;74.41;101366.53;7395126;19;20023;-67
2022/08/29 01:56:30;;;;;;;7.25;3.08;;;;;;;12.80;74.26;101366.56;7395372;19;20027;-66
2022/08/29 01:59:00;;;;;;;9.00;3.33;;;;;;;12.79;74.41;101363.94;7393893;19;20027;-66
2022/08/29 02:01:34;;;;;;;9.80;3.33;;;;;;;12.77;74.38;101363.13;7395272;19;20014;-66
2022/08/29 02:04:02;;;;;;;11.77;4.03;;;;;;;12.75;74.46;101364.91;7395016;19;20023;-67
2022/08/29 02:06:31;;;;;;;8.70;3.00;;;;;;;12.74;74.46;101368.44;7393505;19;20017;-66
2022/08/29 02:09:00;;;;;;;8.10;3.85;;;;;;;12.70;74.55;101375.53;7395135;19;20549;-66
2022/08/29 02:11:31;;;;;;;10.88;3.42;;;;;;;12.68;74.73;101372.09;7395463;19;20022;-66
2022/08/29 02:14:03;;;;;;;10.48;3.97;;;;;;;12.64;74.69;101367.78;7394639;19;20039;-66
2022/08/29 02:16:32;;;;;;;11.60;3.35;;;;;;;12.59;74.82;101369.66;7395069;19;20490;-66
2022/08/29 02:19:03;;;;;;;7.60;3.80;;;;;;;12.55;74.91;101366.22;7391940;19;20386;-67
2022/08/29 02:21:32;;;;;;;7.28;3.92;;;;;;;12.54;74.99;101367.97;7394494;19;20019;-67
2022/08/29 02:24:07;;;;;;;8.77;3.17;;;;;;;12.51;75.31;101367.16;7394349;19;20040;-67
2022/08/29 02:26:38;;;;;;;12.20;3.78;;;;;;;12.47;75.42;101366.38;7395812;19;20469;-66
2022/08/29 02:29:08;;;;;;;9.55;3.95;;;;;;;12.42;75.38;101368.19;7392813;19;20011;-66
2022/08/29 02:31:37;;;;;;;10.43;3.22;;;;;;;12.41;75.59;101365.59;7394596;19;20042;-66
2022/08/29 02:34:06;;;;;;;7.65;3.47;;;;;;;12.36;75.72;101374.47;7393575;19;20042;-66
2022/08/29 02:36:34;;;;;;;9.18;3.65;;;;;;;12.35;75.87;101377.13;7394017;19;20487;-66
2022/08/29 02:39:03;;;;;;;10.25;3.53;;;;;;;12.32;75.95;101374.53;7391633;19;20019;-67
2022/08/29 02:41:32;;;;;;;7.63;3.53;;;;;;;12.30;75.88;101371.09;7392338;19;20372;-66
2022/08/29 02:44:03;;;;;;;13.00;3.78;;;;;;;12.27;76.20;101364.13;7392684;19;20015;-66
2022/08/29 02:46:32;;;;;;;8.93;3.72;;;;;;;12.24;76.35;101374.69;7392948;19;20021;-66
2022/08/29 02:49:01;;;;;;;11.50;3.80;;;;;;;12.20;76.48;101371.25;7392139;19;20011;-66
2022/08/29 02:51:33;;;;;;;8.63;4.85;;;;;;;12.17;76.41;101373.94;7393726;19;20370;-66
2022/08/29 02:54:02;;;;;;;40.58;21.40;;;;;;;12.14;76.64;101366.09;7392927;19;20038;-67
2022/08/29 02:56:31;;;;;;;13.68;4.50;;;;;;;12.11;76.60;101366.16;7394046;19;20032;-66
2022/08/29 02:59:02;;;;;;;11.98;4.28;;;;;;;12.09;76.75;101365.31;7392199;19;20070;-66
2022/08/29 03:01:32;;;;;;;8.85;4.03;;;;;;;12.08;76.87;101368.84;7394558;19;20018;-67
2022/08/29 03:04:01;;;;;;;8.20;4.28;;;;;;;12.05;76.88;101361.00;7392762;19;20014;-66
2022/08/29 03:06:29;;;;;;;10.68;3.90;;;;;;;12.03;76.81;101365.41;7391784;19;20026;-66
2022/08/29 03:08:58;;;;;;;10.48;3.70;;;;;;;12.00;76.77;101365.47;7393823;19;20019;-66
2022/08/29 03:11:27;;;;;;;9.60;3.88;;;;;;;11.99;77.14;101366.38;7394509;19;20031;-66
2022/08/29 03:13:56;;;;;;;10.75;3.90;;;;;;;11.97;77.24;101361.16;7392570;19;20018;-67
2022/08/29 03:16:27;;;;;;;8.70;3.88;;;;;;;11.95;77.31;101367.28;7393569;19;20015;-66
2022/08/29 03:18:56;;;;;;;24.25;12.18;;;;;;;11.90;77.41;101359.47;7392356;19;20018;-66
2022/08/29 03:21:26;;;;;;;9.77;4.95;;;;;;;11.87;77.45;101355.13;7393089;19;20018;-66
2022/08/29 03:23:57;;;;;;;10.65;3.83;;;;;;;11.84;77.60;101364.84;7392499;19;20018;-66
2022/08/29 03:26:26;;;;;;;9.35;4.10;;;;;;;11.79;77.68;101370.19;7391101;19;20026;-66
2022/08/29 03:28:55;;;;;;;14.13;7.03;;;;;;;11.76;77.71;101359.72;7392298;19;20023;-66
2022/08/29 03:31:23;;;;;;;12.65;4.85;;;;;;;11.71;77.92;101362.44;7397903;19;20014;-66
2022/08/29 03:33:55;;;;;;;10.93;4.22;;;;;;;11.67;77.92;101365.13;7398926;19;20039;-66
2022/08/29 03:36:25;;;;;;;9.02;4.45;;;;;;;11.64;77.97;101365.16;7396675;19;20501;-67
2022/08/29 03:38:54;;;;;;;9.93;4.38;;;;;;;11.63;78.31;101371.34;7396184;19;20033;-66
2022/08/29 03:41:24;;;;;;;12.35;4.50;;;;;;;11.60;78.29;101368.75;7399130;19;20035;-67
2022/08/29 03:43:54;;;;;;;8.77;3.90;;;;;;;11.57;78.42;101367.91;7398627;19;20019;-66
2022/08/29 03:46:22;;;;;;;8.93;4.75;;;;;;;11.54;78.73;101365.31;7400341;19;20010;-67
2022/08/29 03:48:53;;;;;;;6.70;3.67;;;;;;;11.51;78.75;101365.38;7399318;19;20482;-65
2022/08/29 03:51:22;;;;;;;12.98;5.45;;;;;;;11.46;79.05;101361.97;7397165;19;20510;-65
2022/08/29 03:53:51;;;;;;;10.63;4.38;;;;;;;11.43;79.71;101367.25;7398272;19;20019;-66
2022/08/29 03:56:19;;;;;;;10.13;4.38;;;;;;;11.40;79.55;101364.69;7399262;19;20023;-65
2022/08/29 03:58:49;;;;;;;10.95;4.55;;;;;;;11.36;79.68;101369.13;7398075;19;20023;-65
2022/08/29 04:01:18;;;;;;;10.95;5.28;;;;;;;11.34;79.75;101370.88;7399259;19;20018;-65
2022/08/29 04:03:47;;;;;;;11.43;4.50;;;;;;;11.32;79.71;101371.81;7397722;19;20018;-65
2022/08/29 04:06:18;;;;;;;11.80;4.80;;;;;;;11.30;80.12;101378.81;7398326;19;20548;-66
2022/08/29 04:08:47;;;;;;;11.55;4.72;;;;;;;11.28;80.07;101381.47;7399284;19;20014;-65
2022/08/29 04:11:18;;;;;;;11.43;4.63;;;;;;;11.27;80.18;101382.38;7396688;19;20022;-66
2022/08/29 04:13:46;;;;;;;11.68;4.85;;;;;;;11.25;80.36;101378.91;7398101;19;20018;-66
2022/08/29 04:16:17;;;;;;;12.05;5.15;;;;;;;11.24;80.26;101374.53;7398619;19;20026;-65
2022/08/29 04:18:45;;;;;;;10.65;4.57;;;;;;;11.22;80.62;101382.44;7397186;19;20405;-66
2022/08/29 04:21:14;;;;;;;8.68;5.10;;;;;;;11.20;80.83;101381.59;7395779;19;20514;-66
2022/08/29 04:23:46;;;;;;;14.07;5.07;;;;;;;11.18;81.22;101379.88;7397399;19;20025;-66
2022/08/29 04:26:16;;;;;;;13.32;4.70;;;;;;;11.17;81.22;101384.28;7397956;19;20010;-66
2022/08/29 04:28:44;;;;;;;8.07;4.32;;;;;;;11.15;81.34;101379.94;7397961;19;20018;-66
2022/08/29 04:31:18;;;;;;;13.27;5.30;;;;;;;11.13;81.50;101372.06;7395302;19;20022;-67
2022/08/29 04:33:48;;;;;;;14.65;5.30;;;;;;;11.13;81.85;101377.31;7395989;19;20022;-66
2022/08/29 04:36:18;;;;;;;11.05;5.15;;;;;;;11.12;82.04;101369.47;7395158;19;20079;-65
2022/08/29 04:38:49;;;;;;;9.02;4.63;;;;;;;11.11;82.21;101373.84;7394689;19;20371;-66
2022/08/29 04:41:18;;;;;;;11.50;4.72;;;;;;;11.11;82.40;101373.84;7394465;19;20007;-66
2022/08/29 04:43:47;;;;;;;12.60;5.63;;;;;;;11.11;82.50;101372.97;7396294;19;20018;-66
2022/08/29 04:46:17;;;;;;;9.65;5.15;;;;;;;11.12;82.30;101380.84;7397005;19;20485;-66
2022/08/29 04:48:46;;;;;;;12.60;5.97;;;;;;;11.12;82.82;101383.47;7395736;19;20015;-66
2022/08/29 04:51:15;;;;;;;9.73;4.53;;;;;;;11.14;82.84;101379.06;7394801;19;20018;-67
2022/08/29 04:53:43;;;;;;;12.30;5.57;;;;;;;11.16;82.86;101379.03;7395444;19;20014;-66
2022/08/29 04:56:15;;;;;;;15.40;5.20;;;;;;;11.18;83.10;101382.50;7397127;19;20498;-67
2022/08/29 04:58:46;;;;;;;9.93;4.43;;;;;;;11.20;83.00;101386.00;7395235;19;20024;-67
2022/08/29 05:01:16;;;;;;;14.23;4.90;;;;;;;11.19;83.17;101385.09;7396465;19;20081;-67
2022/08/29 05:03:45;;;;;;;12.10;5.45;;;;;;;11.23;83.79;101385.94;7394893;19;20390;-67
2022/08/29 05:06:16;;;;;;;12.55;5.28;;;;;;;11.26;83.61;101378.03;7394890;19;20074;-66
2022/08/29 05:08:46;;;;;;;13.40;5.30;;;;;;;11.29;83.65;101390.25;7394245;19;20070;-67
2022/08/29 05:11:19;;;;;;;16.40;5.20;;;;;;;11.33;83.99;101394.56;7395574;19;20450;-67
2022/08/29 05:13:50;;;;;;;17.20;5.78;;;;;;;11.37;83.82;101389.25;7394210;19;20378;-67
2022/08/29 05:16:19;;;;;;;10.15;5.57;;;;;;;11.41;84.07;101388.31;7394672;19;20473;-67
2022/08/29 05:18:48;;;;;;;12.77;5.40;;;;;;;11.45;84.04;101397.00;7393882;19;20035;-67
2022/08/29 05:21:26;;;;;;;9.07;5.18;;;;;;;11.49;84.25;101390.81;7393336;19;20014;-67
2022/08/29 05:23:55;;;;;;;13.90;5.70;;;;;;;11.53;84.15;101392.50;7393722;19;20018;-67
2022/08/29 05:26:30;;;;;;;14.32;5.15;;;;;;;11.56;84.27;101391.56;7392915;19;20031;-67
2022/08/29 05:28:59;;;;;;;12.18;5.35;;;;;;;11.60;84.08;101392.41;7395952;19;20031;-65
2022/08/29 05:31:28;;;;;;;15.68;6.10;;;;;;;11.62;84.26;101382.75;7393656;19;20033;-66
2022/08/29 05:33:56;;;;;;;12.52;5.25;;;;;;;11.65;84.16;101380.94;7394108;19;20035;-66
2022/08/29 05:36:25;;;;;;;10.88;5.07;;;;;;;11.70;84.11;101384.34;7393389;19;20019;-66
2022/08/29 05:38:54;;;;;;;14.27;5.78;;;;;;;11.76;84.10;101387.78;7393768;19;20021;-66
2022/08/29 05:41:22;;;;;;;13.80;5.30;;;;;;;11.78;84.34;101389.50;7392814;19;20027;-67
2022/08/29 05:43:54;;;;;;;11.32;5.40;;;;;;;11.85;84.25;101404.28;7393933;19;20010;-66
2022/08/29 05:46:22;;;;;;;11.43;5.68;;;;;;;11.91;83.80;101413.81;7395805;19;20029;-67
2022/08/29 05:48:51;;;;;;;12.00;5.13;;;;;;;11.94;84.21;101408.47;7396048;19;20381;-66
2022/08/29 05:51:23;;;;;;;11.30;4.78;;;;;;;11.98;84.22;101406.72;7394250;19;20018;-66
2022/08/29 05:53:52;;;;;;;15.25;5.63;;;;;;;12.03;84.03;101421.53;7395339;19;20031;-66
2022/08/29 05:56:25;;;;;;;13.32;6.57;;;;;;;12.08;83.92;101426.72;7395492;19;20510;-67
2022/08/29 05:58:57;;;;;;;10.45;4.97;;;;;;;12.12;83.88;101423.13;7393612;19;20011;-66
2022/08/29 06:01:28;;;;;;;11.95;5.25;;;;;;;12.19;83.76;101431.78;7395829;19;20018;-66
2022/08/29 06:03:57;;;;;;;9.90;5.05;;;;;;;12.24;83.67;101429.06;7394698;19;20022;-66
2022/08/29 06:06:29;;;;;;;13.50;5.13;;;;;;;12.29;83.73;101425.44;7394577;19;20044;-67
2022/08/29 06:08:59;;;;;;;9.73;5.07;;;;;;;12.35;83.77;101425.34;7393794;19;20037;-66
2022/08/29 06:11:30;;;;;;;10.75;5.28;;;;;;;12.42;83.64;101420.81;7395145;19;20074;-66
2022/08/29 06:14:02;;;;;;;12.40;5.15;;;;;;;12.52;83.86;101427.69;7393420;19;20089;-66
2022/08/29 06:16:31;;;;;;;12.45;4.90;;;;;;;12.63;83.36;101430.09;7395272;19;20082;-66
2022/08/29 06:19:00;;;;;;;11.60;4.88;;;;;;;12.75;83.52;101428.13;7394118;19;20182;-66
2022/08/29 06:21:29;;;;;;;11.70;4.82;;;;;;;12.87;83.29;101427.88;7392847;19;20031;-67
2022/08/29 06:23:58;;;;;;;11.10;5.38;;;;;;;12.98;83.02;101430.31;7393377;19;20023;-66
2022/08/29 06:26:26;;;;;;;13.07;5.50;;;;;;;13.09;82.81;101427.41;7393807;19;20014;-66
2022/08/29 06:28:55;;;;;;;11.93;5.10;;;;;;;13.17;82.79;101433.41;7392294;19;20026;-66
2022/08/29 06:31:28;;;;;;;9.15;4.60;;;;;;;13.25;83.09;101427.97;7392906;19;20514;-66
2022/08/29 06:33:59;;;;;;;12.20;5.20;;;;;;;13.32;83.01;101429.53;7392788;19;20087;-67
2022/08/29 06:36:29;;;;;;;11.32;5.15;;;;;;;13.42;82.82;101440.78;7391967;19;20524;-66
2022/08/29 06:38:58;;;;;;;11.85;4.97;;;;;;;13.49;82.62;101443.25;7392251;19;20014;-66
2022/08/29 06:41:28;;;;;;;12.80;4.93;;;;;;;13.59;82.50;101446.53;7391735;19;20380;-66
2022/08/29 06:43:58;;;;;;;13.75;5.50;;;;;;;13.71;82.53;101447.16;7393276;19;20026;-66
2022/08/29 06:46:32;;;;;;;11.38;4.78;;;;;;;13.84;82.30;101446.84;7391857;19;20390;-66
2022/08/29 06:49:08;;;;;;;;;;;;;;;13.95;82.63;101450.97;7395430;19;20019;-66
2022/08/29 06:51:39;;;;;;;14.68;5.20;;;;;;;14.06;81.59;101448.94;7393153;19;19943;-66
2022/08/29 06:54:11;;;;;;;15.07;5.88;;;;;;;14.15;81.65;101456.66;7392392;19;20042;-67
2022/08/29 06:56:40;;;;;;;10.15;4.88;;;;;;;14.24;81.58;101452.03;7394325;19;20023;-66
2022/08/29 06:59:09;;;;;;;12.82;5.25;;;;;;;14.31;81.06;101462.38;7391719;19;20015;-66
2022/08/29 07:01:49;;;;;;;10.93;5.05;;;;;;;14.40;81.13;101457.78;7391747;19;20018;-66
2022/08/29 07:04:17;;;;;;;10.00;4.80;;;;;;;14.48;81.02;101464.59;7396108;19;20023;-67
2022/08/29 07:06:47;;;;;;;10.57;4.95;;;;;;;14.56;80.52;101456.47;7401371;19;20035;-67
2022/08/29 07:09:15;;;;;;;10.82;4.97;;;;;;;14.66;80.68;101460.59;7401538;19;20015;-66
2022/08/29 07:11:45;;;;;;;10.68;4.85;;;;;;;14.75;80.50;101464.78;7401106;19;20019;-66
2022/08/29 07:14:14;;;;;;;10.90;4.95;;;;;;;14.85;80.38;101456.59;7398677;19;20474;-66
2022/08/29 07:16:45;;;;;;;13.32;4.80;;;;;;;14.95;80.01;101465.97;7400015;19;20505;-66
2022/08/29 07:19:13;;;;;;;9.77;4.38;;;;;;;15.07;79.97;101470.91;7399431;19;20010;-65
2022/08/29 07:21:42;;;;;;;11.85;5.43;;;;;;;15.19;79.85;101472.34;7400654;19;20086;-66
2022/08/29 07:24:10;;;;;;;13.95;5.18;;;;;;;15.28;79.49;101468.56;7398112;19;20375;-66
2022/08/29 07:26:43;;;;;;;11.40;5.30;;;;;;;15.41;79.13;101469.06;7399560;19;20014;-66
2022/08/29 07:29:16;;;;;;;10.40;4.78;;;;;;;15.50;78.74;101466.13;7399501;19;20390;-66
2022/08/29 07:31:47;;;;;;;16.47;6.00;;;;;;;15.56;78.50;101467.72;7399560;19;20498;-65
2022/08/29 07:34:18;;;;;;;9.10;5.00;;;;;;;15.63;78.39;101472.78;7398565;19;20035;-66
2022/08/29 07:36:47;;;;;;;12.07;4.70;;;;;;;15.70;78.37;101470.78;7399046;19;20581;-65
2022/08/29 07:39:20;;;;;;;13.00;5.15;;;;;;;15.75;77.84;101460.06;7397268;19;20006;-65
2022/08/29 07:41:49;;;;;;;9.85;5.43;;;;;;;15.80;77.96;101463.44;7399192;19;20011;-66
2022/08/29 07:44:20;;;;;;;12.00;5.60;;;;;;;15.87;77.87;101474.72;7397768;19;20035;-65
2022/08/29 07:46:56;;;;;;;10.15;5.10;;;;;;;15.90;77.66;101478.13;7399075;19;20633;-65
2022/08/29 07:49:24;;;;;;;14.60;5.70;;;;;;;15.95;77.55;101472.69;7399769;19;20100;-66
2022/08/29 07:51:53;;;;;;;14.57;5.57;;;;;;;16.01;77.67;101484.84;7399604;19;20039;-66
2022/08/29 07:54:21;;;;;;;15.57;6.32;;;;;;;16.06;77.30;101482.91;7398074;19;20015;-66
2022/08/29 07:56:52;;;;;;;15.73;5.93;;;;;;;16.11;77.31;101492.44;7399235;19;20130;-66
2022/08/29 07:59:21;;;;;;;14.50;6.10;;;;;;;16.17;77.22;101490.50;7398477;19;20086;-66
2022/08/29 08:01:52;;;;;;;10.45;4.80;;;;;;;16.15;76.64;101479.97;7399521;19;20019;-66
2022/08/29 08:04:21;;;;;;;14.00;6.32;;;;;;;16.15;76.81;101487.03;7398117;19;20019;-66
2022/08/29 08:06:49;;;;;;;18.90;7.43;;;;;;;16.13;76.96;101482.66;7399036;19;20072;-65
2022/08/29 08:09:18;;;;;;;15.15;6.10;;;;;;;16.09;76.72;101488.97;7398615;19;20022;-65
2022/08/29 08:11:46;;;;;;;25.00;6.80;;;;;;;16.08;77.27;101496.97;7398738;19;20432;-65
2022/08/29 08:14:15;;;;;;;14.73;5.78;;;;;;;16.10;76.86;101492.50;7397286;19;20035;-66
2022/08/29 08:16:44;;;;;;;18.15;6.53;;;;;;;16.12;76.76;101494.19;7395740;19;20489;-65
2022/08/29 08:19:17;;;;;;;16.08;6.00;;;;;;;16.17;76.70;101501.94;7398478;19;20025;-66
2022/08/29 08:21:46;;;;;;;20.08;6.75;;;;;;;16.23;76.83;101498.25;7398083;19;20497;-66
2022/08/29 08:24:14;;;;;;;14.95;6.32;;;;;;;16.29;76.79;101495.41;7395615;19;20518;-66
2022/08/29 08:26:43;;;;;;;14.23;6.10;;;;;;;16.36;76.33;101496.91;7398655;19;20018;-66
2022/08/29 08:29:11;;;;;;;11.75;6.25;;;;;;;16.42;76.37;101494.03;7398448;19;20351;-66
2022/08/29 08:31:44;;;;;;;14.57;5.95;;;;;;;16.48;76.08;101498.28;7396253;19;20019;-66
2022/08/29 08:34:15;;;;;;;15.63;6.43;;;;;;;16.51;75.65;101505.25;7397156;19;20028;-66
2022/08/29 08:36:45;;;;;;;11.88;6.90;;;;;;;16.54;75.62;101506.03;7397430;19;20035;-65
2022/08/29 08:39:14;;;;;;;14.07;6.05;;;;;;;16.57;75.97;101494.44;7395539;19;20017;-65
2022/08/29 08:41:51;;;;;;;12.70;6.10;;;;;;;16.62;75.24;101497.81;7396345;19;20078;-66
2022/08/29 08:44:51;;;;;;;13.55;6.40;;;;;;;16.69;75.20;101495.78;7396019;19;20022;-66
2022/08/29 08:47:27;;;;;;;13.40;5.93;;;;;;;16.80;75.56;101490.13;7397913;19;20022;-65
2022/08/29 08:50:03;;;;;;;12.82;5.53;;;;;;;16.89;75.22;101495.06;7397720;19;20018;-66
2022/08/29 08:52:39;;;;;;;12.82;5.85;;;;;;;16.96;74.64;101495.75;7398642;19;20015;-66
2022/08/29 08:55:16;;;;;;;12.52;6.20;;;;;;;17.05;74.32;101496.28;7395429;19;20019;-66
2022/08/29 08:57:54;;;;;;;14.85;6.28;;;;;;;17.15;74.26;101495.94;7397894;19;20364;-66
2022/08/29 09:00:22;;;;;;;12.65;6.38;;;;;;;17.21;73.88;101499.25;7396276;19;20035;-66
2022/08/29 09:03:03;;;;;;;16.52;7.55;;;;;;;17.26;73.09;101499.91;7394695;19;20081;-67
2022/08/29 09:05:48;;;;;;;11.95;6.22;;;;;;;17.32;73.40;101504.13;7395507;19;20019;-69
2022/08/29 09:08:24;;;;;;;14.05;5.70;;;;;;;17.42;73.47;101501.97;7396669;19;20035;-66
2022/08/29 09:11:01;;;;;;;13.57;5.70;;;;;;;17.52;72.83;101498.03;7397328;19;20035;-67
2022/08/29 09:13:41;;;;;;;15.80;6.28;;;;;;;17.61;71.75;101512.75;7394870;19;20023;-66
2022/08/29 09:16:16;;;;;;;13.52;6.05;;;;;;;17.65;72.31;101490.47;7396995;19;20022;-65
2022/08/29 09:18:45;;;;;;;11.63;6.88;;;;;;;17.70;72.00;101493.78;7395137;19;20407;-66
2022/08/29 09:21:19;;;;;;;10.80;6.03;;;;;;;17.78;72.21;101509.44;7394409;19;20021;-66
2022/08/29 09:23:50;;;;;;;11.30;5.78;;;;;;;17.81;71.93;101500.50;7394119;19;20014;-66
2022/08/29 09:26:20;;;;;;;9.90;5.20;;;;;;;17.79;72.15;101492.56;7394135;19;20431;-66
2022/08/29 09:28:50;;;;;;;11.10;5.78;;;;;;;17.79;71.81;101497.88;7393557;19;20028;-65
2022/08/29 09:31:22;;;;;;;9.38;5.82;;;;;;;17.83;71.67;101501.28;7395935;19;20011;-66
2022/08/29 09:33:53;;;;;;;9.82;5.25;;;;;;;17.82;71.69;101495.13;7395034;19;20458;-66
2022/08/29 09:36:44;;;;;;;10.52;5.38;;;;;;;17.87;71.12;101500.25;7395964;19;20023;-66
2022/08/29 09:39:15;;;;;;;11.02;5.57;;;;;;;17.96;71.29;101493.69;7393797;19;20014;-66
2022/08/29 09:41:44;;;;;;;9.93;5.00;;;;;;;18.03;70.90;101498.72;7393596;19;20038;-68
2022/08/29 09:44:19;;;;;;;9.70;5.05;;;;;;;18.13;71.04;101499.19;7394139;19;20419;-66
2022/08/29 09:46:48;;;;;;;10.60;5.68;;;;;;;18.26;70.40;101491.59;7395435;19;20031;-66
2022/08/29 09:49:18;;;;;;;10.35;5.25;;;;;;;18.39;70.06;101498.09;7395251;19;20082;-66
2022/08/29 09:51:50;;;;;;;9.20;4.47;;;;;;;18.53;69.75;101494.84;7394463;19;20029;-66
2022/08/29 09:54:26;;;;;;;6.90;4.53;;;;;;;18.64;68.93;101505.03;7393822;19;20019;-66
2022/08/29 09:56:57;;;;;;;10.35;5.00;;;;;;;18.68;68.99;101501.28;7394352;19;20560;-66
2022/08/29 09:59:29;;;;;;;9.23;4.50;;;;;;;18.69;68.53;101505.69;7394606;19;20014;-66
2022/08/29 10:02:24;;;;;;;9.55;4.53;;;;;;;18.70;67.76;101501.22;7392923;19;20018;-66
2022/08/29 10:04:55;;;;;;;9.02;4.38;;;;;;;18.72;68.27;101505.53;7393989;19;20039;-66
2022/08/29 10:07:29;;;;;;;10.88;4.50;;;;;;;18.73;67.49;101501.94;7395013;19;20040;-68
2022/08/29 10:10:05;;;;;;;8.15;4.97;;;;;;;18.75;67.94;101499.22;7393329;19;20518;-66
2022/08/29 10:12:42;;;;;;;6.80;5.03;;;;;;;18.76;67.90;101500.09;7394969;19;20018;-65
2022/08/29 10:15:14;;;;;;;8.95;4.80;;;;;;;18.77;67.79;101501.84;7392986;19;20018;-65
2022/08/29 10:20:44;;;;;;;6.30;4.55;;;;;;;18.78;66.53;101504.41;7393192;19;20014;-66
2022/08/29 10:23:24;;;;;;;9.25;4.85;;;;;;;18.77;66.68;101493.84;7392371;19;20018;-65
2022/08/29 10:25:53;;;;;;;13.20;4.93;;;;;;;18.80;67.54;101507.00;7394261;19;20015;-65
2022/08/29 10:28:30;;;;;;;6.88;4.63;;;;;;;18.80;66.21;101509.66;7392663;19;20506;-66
2022/08/29 10:31:07;;;;;;;9.30;4.97;;;;;;;18.79;66.07;101510.59;7394244;19;20031;-65
2022/08/29 10:34:01;;;;;;;8.02;5.20;;;;;;;18.84;66.69;101509.47;7393708;19;20014;-66
2022/08/29 10:36:33;;;;;;;;;;;;;;;18.89;66.54;101511.91;7392421;19;20014;-65
2022/08/29 10:39:14;;;;;;;6.43;4.63;;;;;;;18.95;66.40;101519.63;7393670;19;19919;-65
2022/08/29 10:41:54;;;;;;;7.30;4.53;;;;;;;18.97;66.14;101515.13;7398921;19;20015;-66
2022/08/29 10:44:33;;;;;;;7.43;4.93;;;;;;;19.01;66.19;101531.81;7400054;19;20077;-65
2022/08/29 10:47:25;;;;;;;8.55;4.53;;;;;;;19.03;65.16;101514.84;7402025;19;20014;-66
2022/08/29 10:50:10;;;;;;;7.05;4.68;;;;;;;19.08;65.26;101516.44;7402189;19;20022;-66
2022/08/29 10:52:50;;;;;;;6.82;4.72;;;;;;;19.08;65.26;101509.31;7398711;19;20022;-67
2022/08/29 10:55:38;;;;;;;8.30;5.28;;;;;;;19.06;65.79;101505.88;7401475;19;20031;-68
2022/08/29 10:58:11;;;;;;;9.68;4.80;;;;;;;19.02;65.78;101507.81;7400816;19;20517;-69
2022/08/29 11:00:45;;;;;;;8.95;4.55;;;;;;;19.01;66.25;101510.53;7398099;19;20022;-68
2022/08/29 11:03:24;;;;;;;10.00;4.47;;;;;;;19.01;65.91;101507.88;7400846;19;20045;-67
2022/08/29 11:06:11;;;;;;;9.38;4.10;;;;;;;19.03;66.06;101504.22;7399853;19;20014;-69
2022/08/29 11:08:45;;;;;;;8.00;4.88;;;;;;;19.07;66.24;101502.28;7400416;19;20018;-65
2022/08/29 11:11:21;;;;;;;7.43;5.50;;;;;;;19.10;66.27;101504.78;7398522;19;20014;-67
2022/08/29 11:13:55;;;;;;;6.07;4.03;;;;;;;19.13;66.30;101509.97;7398095;19;20046;-68
2022/08/29 11:16:27;;;;;;;;;;;;;;;19.11;65.97;101506.53;7398555;19;20357;-65
2022/08/29 11:19:04;;;;;;;7.38;5.13;;;;;;;19.07;66.04;101512.03;7395263;19;20373;-68
2022/08/29 11:21:39;;;;;;;6.93;4.95;;;;;;;19.05;66.15;101517.44;7395120;19;20483;-67
2022/08/29 11:24:08;;;;;;;6.63;5.03;;;;;;;19.06;66.56;101519.16;7395554;19;20027;-66
2022/08/29 11:26:50;;;;;;;10.13;5.75;;;;;;;19.08;66.23;101517.28;7398255;19;20359;-66
2022/08/29 11:29:30;;;;;;;7.43;4.78;;;;;;;19.04;66.74;101515.69;7397680;19;20053;-66
2022/08/29 11:32:05;;;;;;;8.48;5.40;;;;;;;18.97;66.38;101525.75;7397821;19;20014;-66
2022/08/29 11:34:47;;;;;;;9.73;4.75;;;;;;;18.93;66.39;101531.28;7395946;19;20019;-66
2022/08/29 11:37:38;;;;;;;7.47;4.72;;;;;;;18.88;66.98;101520.81;7398604;19;20017;-66
2022/08/29 11:40:15;;;;;;;8.70;5.20;;;;;;;18.88;67.16;101526.16;7396354;19;20010;-67
2022/08/29 11:42:49;;;;;;;6.35;4.63;;;;;;;18.92;66.63;101527.75;7396308;19;20018;-67
2022/08/29 11:45:27;;;;;;;7.13;5.00;;;;;;;18.94;66.76;101533.00;7399794;19;20011;-66
2022/08/29 11:48:02;;;;;;;9.15;5.05;;;;;;;18.91;66.32;101535.81;7399684;19;20031;-67
2022/08/29 11:50:34;;;;;;;8.35;4.78;;;;;;;18.85;66.67;101521.78;7400007;19;20022;-66